sensor_id;sensor_type;location;lat;lon;timestamp;P1;durP1;ratioP1;P2;durP2;ratioP2
28920;SDS011;16035;53.594;9.952;2023-12-28T00:20:40;9.63;;;1.65;;
28920;SDS011;16035;53.594;9.952;2023-12-28T00:22:41;6.23;;;1.60;;
28920;SDS011;16035;53.594;9.952;2023-12-28T00:24:41;2.63;;;1.40;;
28920;SDS011;16035;53.594;9.952;2023-12-28T00:26:42;2.70;;;1.50;;
28920;SDS011;16035;53.594;9.952;2023-12-28T00:28:42;4.60;;;2.00;;
28920;SDS011;16035;53.594;9.952;2023-12-28T00:30:43;1.83;;;1.37;;
28920;SDS011;16035;53.594;9.952;2023-12-28T00:32:43;5.20;;;1.00;;
28920;SDS011;16035;53.594;9.952;2023-12-28T00:34:45;5.28;;;2.13;;
28920;SDS011;16035;53.594;9.952;2023-12-28T00:36:46;4.27;;;1.30;;
28920;SDS011;16035;53.594;9.952;2023-12-28T00:38:46;3.93;;;1.67;;
28920;SDS011;16035;53.594;9.952;2023-12-28T00:40:47;2.73;;;1.50;;
28920;SDS011;16035;53.594;9.952;2023-12-28T00:42:47;3.33;;;1.57;;
28920;SDS011;16035;53.594;9.952;2023-12-28T00:44:48;2.65;;;1.35;;
28920;SDS011;16035;53.594;9.952;2023-12-28T00:46:48;1.97;;;1.17;;
28920;SDS011;16035;53.594;9.952;2023-12-28T00:48:49;4.03;;;1.37;;
28920;SDS011;16035;53.594;9.952;2023-12-28T00:50:49;4.32;;;1.50;;
28920;SDS011;16035;53.594;9.952;2023-12-28T00:52:49;2.23;;;1.33;;
28920;SDS011;16035;53.594;9.952;2023-12-28T00:54:50;2.10;;;1.13;;
28920;SDS011;16035;53.594;9.952;2023-12-28T00:56:50;1.90;;;1.10;;
28920;SDS011;16035;53.594;9.952;2023-12-28T00:58:50;2.20;;;1.50;;
28920;SDS011;16035;53.594;9.952;2023-12-28T01:00:51;4.97;;;1.30;;
28920;SDS011;16035;53.594;9.952;2023-12-28T01:02:53;7.22;;;1.60;;
28920;SDS011;16035;53.594;9.952;2023-12-28T01:04:53;3.97;;;1.37;;
28920;SDS011;16035;53.594;9.952;2023-12-28T01:06:54;5.30;;;1.60;;
28920;SDS011;16035;53.594;9.952;2023-12-28T01:08:54;4.13;;;1.57;;
28920;SDS011;16035;53.594;9.952;2023-12-28T01:10:55;1.80;;;1.27;;
28920;SDS011;16035;53.594;9.952;2023-12-28T01:12:55;2.03;;;1.13;;
28920;SDS011;16035;53.594;9.952;2023-12-28T01:14:56;2.97;;;1.20;;
28920;SDS011;16035;53.594;9.952;2023-12-28T01:16:56;2.10;;;1.20;;
28920;SDS011;16035;53.594;9.952;2023-12-28T01:18:56;3.90;;;1.53;;
28920;SDS011;16035;53.594;9.952;2023-12-28T01:20:57;2.87;;;1.37;;
28920;SDS011;16035;53.594;9.952;2023-12-28T01:22:57;2.67;;;1.37;;
28920;SDS011;16035;53.594;9.952;2023-12-28T01:24:57;4.57;;;1.73;;
28920;SDS011;16035;53.594;9.952;2023-12-28T01:26:58;3.33;;;1.57;;
28920;SDS011;16035;53.594;9.952;2023-12-28T01:28:58;4.63;;;1.27;;
28920;SDS011;16035;53.594;9.952;2023-12-28T01:31:01;5.47;;;1.63;;
28920;SDS011;16035;53.594;9.952;2023-12-28T01:33:02;5.83;;;1.60;;
28920;SDS011;16035;53.594;9.952;2023-12-28T01:35:02;3.47;;;1.40;;
28920;SDS011;16035;53.594;9.952;2023-12-28T01:37:03;3.43;;;1.53;;
28920;SDS011;16035;53.594;9.952;2023-12-28T01:39:03;5.93;;;1.70;;
28920;SDS011;16035;53.594;9.952;2023-12-28T01:41:03;3.87;;;1.70;;
28920;SDS011;16035;53.594;9.952;2023-12-28T01:43:04;3.60;;;1.40;;
28920;SDS011;16035;53.594;9.952;2023-12-28T01:45:04;3.63;;;1.50;;
28920;SDS011;16035;53.594;9.952;2023-12-28T01:47:05;2.88;;;1.67;;
28920;SDS011;16035;53.594;9.952;2023-12-28T01:49:06;3.13;;;1.50;;
28920;SDS011;16035;53.594;9.952;2023-12-28T01:51:07;2.25;;;1.23;;
28920;SDS011;16035;53.594;9.952;2023-12-28T01:53:08;3.57;;;1.50;;
28920;SDS011;16035;53.594;9.952;2023-12-28T01:55:08;3.13;;;1.47;;
28920;SDS011;16035;53.594;9.952;2023-12-28T01:57:09;2.27;;;1.53;;
28920;SDS011;16035;53.594;9.952;2023-12-28T01:59:10;4.93;;;1.83;;
28920;SDS011;16035;53.594;9.952;2023-12-28T02:01:11;3.07;;;1.60;;
28920;SDS011;16035;53.594;9.952;2023-12-28T02:03:12;3.10;;;1.77;;
28920;SDS011;16035;53.594;9.952;2023-12-28T02:05:12;5.17;;;1.80;;
28920;SDS011;16035;53.594;9.952;2023-12-28T02:07:13;1.37;;;1.00;;
28920;SDS011;16035;53.594;9.952;2023-12-28T02:09:14;4.47;;;1.52;;
28920;SDS011;16035;53.594;9.952;2023-12-28T02:11:14;2.93;;;1.63;;
28920;SDS011;16035;53.594;9.952;2023-12-28T02:13:15;4.23;;;1.60;;
28920;SDS011;16035;53.594;9.952;2023-12-28T02:15:15;5.47;;;1.83;;
28920;SDS011;16035;53.594;9.952;2023-12-28T02:17:19;7.00;;;1.77;;
28920;SDS011;16035;53.594;9.952;2023-12-28T02:19:31;4.85;;;1.67;;
28920;SDS011;16035;53.594;9.952;2023-12-28T02:21:38;5.05;;;1.75;;
28920;SDS011;16035;53.594;9.952;2023-12-28T02:23:45;3.67;;;1.98;;
28920;SDS011;16035;53.594;9.952;2023-12-28T02:25:46;3.50;;;1.70;;
28920;SDS011;16035;53.594;9.952;2023-12-28T02:27:47;4.63;;;1.67;;
28920;SDS011;16035;53.594;9.952;2023-12-28T02:29:48;3.63;;;1.90;;
28920;SDS011;16035;53.594;9.952;2023-12-28T02:31:53;2.20;;;1.30;;
28920;SDS011;16035;53.594;9.952;2023-12-28T02:34:26;5.35;;;1.50;;
28920;SDS011;16035;53.594;9.952;2023-12-28T02:36:27;6.60;;;1.67;;
28920;SDS011;16035;53.594;9.952;2023-12-28T02:38:28;4.47;;;2.13;;
28920;SDS011;16035;53.594;9.952;2023-12-28T02:40:31;4.63;;;1.63;;
28920;SDS011;16035;53.594;9.952;2023-12-28T02:42:37;4.43;;;1.85;;
28920;SDS011;16035;53.594;9.952;2023-12-28T02:44:37;4.43;;;1.70;;
28920;SDS011;16035;53.594;9.952;2023-12-28T02:46:38;5.20;;;1.70;;
28920;SDS011;16035;53.594;9.952;2023-12-28T02:48:38;1.97;;;1.30;;
28920;SDS011;16035;53.594;9.952;2023-12-28T02:50:39;4.50;;;1.50;;
28920;SDS011;16035;53.594;9.952;2023-12-28T02:52:39;3.60;;;1.73;;
28920;SDS011;16035;53.594;9.952;2023-12-28T02:54:39;5.50;;;1.67;;
28920;SDS011;16035;53.594;9.952;2023-12-28T02:56:40;3.73;;;1.77;;
28920;SDS011;16035;53.594;9.952;2023-12-28T02:58:41;2.53;;;1.90;;
28920;SDS011;16035;53.594;9.952;2023-12-28T03:00:41;5.63;;;1.77;;
28920;SDS011;16035;53.594;9.952;2023-12-28T03:02:42;5.83;;;2.07;;
28920;SDS011;16035;53.594;9.952;2023-12-28T03:04:43;4.57;;;1.98;;
28920;SDS011;16035;53.594;9.952;2023-12-28T03:06:45;4.17;;;2.07;;
28920;SDS011;16035;53.594;9.952;2023-12-28T03:08:46;5.95;;;1.90;;
28920;SDS011;16035;53.594;9.952;2023-12-28T03:10:47;2.97;;;1.87;;
28920;SDS011;16035;53.594;9.952;2023-12-28T03:12:47;3.97;;;1.70;;
28920;SDS011;16035;53.594;9.952;2023-12-28T03:14:48;5.43;;;2.13;;
28920;SDS011;16035;53.594;9.952;2023-12-28T03:16:48;3.40;;;2.37;;
28920;SDS011;16035;53.594;9.952;2023-12-28T03:18:48;3.90;;;2.03;;
28920;SDS011;16035;53.594;9.952;2023-12-28T03:20:49;2.63;;;1.80;;
28920;SDS011;16035;53.594;9.952;2023-12-28T03:22:49;3.50;;;1.90;;
28920;SDS011;16035;53.594;9.952;2023-12-28T03:24:49;3.23;;;1.63;;
28920;SDS011;16035;53.594;9.952;2023-12-28T03:26:50;5.23;;;2.30;;
28920;SDS011;16035;53.594;9.952;2023-12-28T03:28:50;3.30;;;2.00;;
28920;SDS011;16035;53.594;9.952;2023-12-28T03:30:50;4.60;;;2.00;;
28920;SDS011;16035;53.594;9.952;2023-12-28T03:32:51;5.67;;;1.93;;
28920;SDS011;16035;53.594;9.952;2023-12-28T03:34:51;3.10;;;1.97;;
28920;SDS011;16035;53.594;9.952;2023-12-28T03:36:52;4.60;;;2.37;;
28920;SDS011;16035;53.594;9.952;2023-12-28T03:38:53;2.65;;;1.88;;
28920;SDS011;16035;53.594;9.952;2023-12-28T03:40:53;3.60;;;2.03;;
28920;SDS011;16035;53.594;9.952;2023-12-28T03:42:55;2.50;;;1.75;;
28920;SDS011;16035;53.594;9.952;2023-12-28T03:44:55;3.33;;;1.90;;
28920;SDS011;16035;53.594;9.952;2023-12-28T03:46:55;5.10;;;1.90;;
28920;SDS011;16035;53.594;9.952;2023-12-28T03:48:56;5.93;;;2.30;;
28920;SDS011;16035;53.594;9.952;2023-12-28T03:50:56;9.17;;;8.07;;
28920;SDS011;16035;53.594;9.952;2023-12-28T03:52:57;4.33;;;1.90;;
28920;SDS011;16035;53.594;9.952;2023-12-28T03:54:58;4.63;;;2.10;;
28920;SDS011;16035;53.594;9.952;2023-12-28T03:56:59;6.97;;;2.40;;
28920;SDS011;16035;53.594;9.952;2023-12-28T03:58:59;2.93;;;1.90;;
28920;SDS011;16035;53.594;9.952;2023-12-28T04:00:59;3.37;;;1.87;;
28920;SDS011;16035;53.594;9.952;2023-12-28T04:03:00;5.97;;;1.87;;
28920;SDS011;16035;53.594;9.952;2023-12-28T04:05:00;4.33;;;2.00;;
28920;SDS011;16035;53.594;9.952;2023-12-28T04:07:00;3.00;;;2.27;;
28920;SDS011;16035;53.594;9.952;2023-12-28T04:09:01;5.27;;;2.33;;
28920;SDS011;16035;53.594;9.952;2023-12-28T04:11:01;3.30;;;1.70;;
28920;SDS011;16035;53.594;9.952;2023-12-28T04:13:01;4.47;;;2.43;;
28920;SDS011;16035;53.594;9.952;2023-12-28T04:15:02;5.23;;;2.10;;
28920;SDS011;16035;53.594;9.952;2023-12-28T04:17:03;6.60;;;1.83;;
28920;SDS011;16035;53.594;9.952;2023-12-28T04:19:03;4.23;;;1.77;;
28920;SDS011;16035;53.594;9.952;2023-12-28T04:21:04;3.43;;;1.60;;
28920;SDS011;16035;53.594;9.952;2023-12-28T04:23:11;3.45;;;1.92;;
28920;SDS011;16035;53.594;9.952;2023-12-28T04:25:11;6.50;;;2.20;;
28920;SDS011;16035;53.594;9.952;2023-12-28T04:27:12;4.10;;;2.00;;
28920;SDS011;16035;53.594;9.952;2023-12-28T04:29:12;6.27;;;2.77;;
28920;SDS011;16035;53.594;9.952;2023-12-28T04:31:13;3.50;;;2.10;;
28920;SDS011;16035;53.594;9.952;2023-12-28T04:33:13;3.50;;;2.03;;
28920;SDS011;16035;53.594;9.952;2023-12-28T04:35:18;7.55;;;2.13;;
28920;SDS011;16035;53.594;9.952;2023-12-28T04:37:18;3.20;;;1.87;;
28920;SDS011;16035;53.594;9.952;2023-12-28T04:39:18;4.77;;;2.73;;
28920;SDS011;16035;53.594;9.952;2023-12-28T04:41:19;3.30;;;2.00;;
28920;SDS011;16035;53.594;9.952;2023-12-28T04:43:19;5.73;;;1.93;;
28920;SDS011;16035;53.594;9.952;2023-12-28T04:45:20;5.83;;;2.10;;
28920;SDS011;16035;53.594;9.952;2023-12-28T04:47:22;3.58;;;2.00;;
28920;SDS011;16035;53.594;9.952;2023-12-28T04:49:22;4.00;;;1.67;;
28920;SDS011;16035;53.594;9.952;2023-12-28T04:51:23;2.83;;;2.10;;
28920;SDS011;16035;53.594;9.952;2023-12-28T04:53:23;8.30;;;1.87;;
28920;SDS011;16035;53.594;9.952;2023-12-28T04:55:23;3.73;;;1.90;;
28920;SDS011;16035;53.594;9.952;2023-12-28T04:57:24;4.30;;;1.87;;
28920;SDS011;16035;53.594;9.952;2023-12-28T04:59:25;3.95;;;2.22;;
28920;SDS011;16035;53.594;9.952;2023-12-28T05:01:26;3.57;;;1.70;;
28920;SDS011;16035;53.594;9.952;2023-12-28T05:03:26;5.23;;;2.30;;
28920;SDS011;16035;53.594;9.952;2023-12-28T05:05:26;4.73;;;1.80;;
28920;SDS011;16035;53.594;9.952;2023-12-28T05:07:27;3.37;;;2.00;;
28920;SDS011;16035;53.594;9.952;2023-12-28T05:09:27;3.37;;;2.27;;
28920;SDS011;16035;53.594;9.952;2023-12-28T05:11:27;3.50;;;2.27;;
28920;SDS011;16035;53.594;9.952;2023-12-28T05:13:28;5.87;;;2.23;;
28920;SDS011;16035;53.594;9.952;2023-12-28T05:15:28;2.30;;;2.10;;
28920;SDS011;16035;53.594;9.952;2023-12-28T05:17:29;5.82;;;1.75;;
28920;SDS011;16035;53.594;9.952;2023-12-28T05:19:29;4.37;;;2.43;;
28920;SDS011;16035;53.594;9.952;2023-12-28T05:21:30;11.30;;;2.40;;
28920;SDS011;16035;53.594;9.952;2023-12-28T05:23:30;4.07;;;2.23;;
28920;SDS011;16035;53.594;9.952;2023-12-28T05:25:30;4.10;;;2.20;;
28920;SDS011;16035;53.594;9.952;2023-12-28T05:27:31;7.70;;;1.73;;
28920;SDS011;16035;53.594;9.952;2023-12-28T05:29:31;3.23;;;2.17;;
28920;SDS011;16035;53.594;9.952;2023-12-28T05:31:31;6.60;;;1.80;;
28920;SDS011;16035;53.594;9.952;2023-12-28T05:33:32;4.30;;;2.10;;
28920;SDS011;16035;53.594;9.952;2023-12-28T05:35:32;4.13;;;2.20;;
28920;SDS011;16035;53.594;9.952;2023-12-28T05:37:32;5.33;;;2.27;;
28920;SDS011;16035;53.594;9.952;2023-12-28T05:39:33;4.80;;;1.70;;
28920;SDS011;16035;53.594;9.952;2023-12-28T05:41:33;3.60;;;2.33;;
28920;SDS011;16035;53.594;9.952;2023-12-28T05:43:33;8.03;;;1.93;;
28920;SDS011;16035;53.594;9.952;2023-12-28T05:45:34;6.80;;;2.40;;
28920;SDS011;16035;53.594;9.952;2023-12-28T05:47:34;5.23;;;2.10;;
28920;SDS011;16035;53.594;9.952;2023-12-28T05:49:34;3.83;;;2.37;;
28920;SDS011;16035;53.594;9.952;2023-12-28T05:51:38;6.97;;;2.15;;
28920;SDS011;16035;53.594;9.952;2023-12-28T05:53:41;4.78;;;2.03;;
28920;SDS011;16035;53.594;9.952;2023-12-28T05:55:42;5.53;;;1.53;;
28920;SDS011;16035;53.594;9.952;2023-12-28T05:57:43;3.88;;;2.38;;
28920;SDS011;16035;53.594;9.952;2023-12-28T05:59:44;4.68;;;2.38;;
28920;SDS011;16035;53.594;9.952;2023-12-28T06:01:44;4.30;;;2.60;;
28920;SDS011;16035;53.594;9.952;2023-12-28T06:03:45;4.70;;;2.40;;
28920;SDS011;16035;53.594;9.952;2023-12-28T06:05:45;3.87;;;2.07;;
28920;SDS011;16035;53.594;9.952;2023-12-28T06:07:45;6.17;;;2.30;;
28920;SDS011;16035;53.594;9.952;2023-12-28T06:09:46;7.13;;;2.13;;
28920;SDS011;16035;53.594;9.952;2023-12-28T06:11:46;6.67;;;2.13;;
28920;SDS011;16035;53.594;9.952;2023-12-28T06:13:47;4.33;;;1.97;;
28920;SDS011;16035;53.594;9.952;2023-12-28T06:15:47;8.50;;;2.63;;
28920;SDS011;16035;53.594;9.952;2023-12-28T06:17:47;5.80;;;2.10;;
28920;SDS011;16035;53.594;9.952;2023-12-28T06:19:48;7.03;;;2.13;;
28920;SDS011;16035;53.594;9.952;2023-12-28T06:21:49;6.15;;;2.25;;
28920;SDS011;16035;53.594;9.952;2023-12-28T06:23:50;5.70;;;1.83;;
28920;SDS011;16035;53.594;9.952;2023-12-28T06:25:50;3.73;;;2.00;;
28920;SDS011;16035;53.594;9.952;2023-12-28T06:27:51;7.10;;;2.57;;
28920;SDS011;16035;53.594;9.952;2023-12-28T06:29:51;4.97;;;2.30;;
28920;SDS011;16035;53.594;9.952;2023-12-28T06:31:51;4.23;;;2.20;;
28920;SDS011;16035;53.594;9.952;2023-12-28T06:33:52;4.20;;;2.27;;
28920;SDS011;16035;53.594;9.952;2023-12-28T06:35:52;6.77;;;2.23;;
28920;SDS011;16035;53.594;9.952;2023-12-28T06:37:53;4.13;;;2.17;;
28920;SDS011;16035;53.594;9.952;2023-12-28T06:39:53;6.37;;;2.10;;
28920;SDS011;16035;53.594;9.952;2023-12-28T06:41:53;5.57;;;1.90;;
28920;SDS011;16035;53.594;9.952;2023-12-28T06:43:54;3.07;;;1.77;;
28920;SDS011;16035;53.594;9.952;2023-12-28T06:45:54;2.87;;;2.10;;
28920;SDS011;16035;53.594;9.952;2023-12-28T06:47:54;9.43;;;2.03;;
28920;SDS011;16035;53.594;9.952;2023-12-28T06:49:55;9.63;;;2.60;;
28920;SDS011;16035;53.594;9.952;2023-12-28T06:51:55;6.50;;;1.97;;
28920;SDS011;16035;53.594;9.952;2023-12-28T06:53:56;6.68;;;2.08;;
28920;SDS011;16035;53.594;9.952;2023-12-28T06:55:56;4.53;;;2.07;;
28920;SDS011;16035;53.594;9.952;2023-12-28T06:57:57;3.20;;;1.97;;
28920;SDS011;16035;53.594;9.952;2023-12-28T06:59:57;2.13;;;1.23;;
28920;SDS011;16035;53.594;9.952;2023-12-28T07:01:59;5.47;;;2.40;;
28920;SDS011;16035;53.594;9.952;2023-12-28T07:04:00;3.23;;;1.47;;
28920;SDS011;16035;53.594;9.952;2023-12-28T07:06:00;6.80;;;1.77;;
28920;SDS011;16035;53.594;9.952;2023-12-28T07:08:02;3.92;;;2.00;;
28920;SDS011;16035;53.594;9.952;2023-12-28T07:10:03;5.47;;;1.90;;
28920;SDS011;16035;53.594;9.952;2023-12-28T07:12:04;5.82;;;2.20;;
28920;SDS011;16035;53.594;9.952;2023-12-28T07:14:05;7.20;;;2.30;;
28920;SDS011;16035;53.594;9.952;2023-12-28T07:16:05;3.27;;;1.67;;
28920;SDS011;16035;53.594;9.952;2023-12-28T07:18:07;5.32;;;2.28;;
28920;SDS011;16035;53.594;9.952;2023-12-28T07:20:08;8.60;;;1.90;;
28920;SDS011;16035;53.594;9.952;2023-12-28T07:22:11;6.55;;;1.92;;
28920;SDS011;16035;53.594;9.952;2023-12-28T07:24:12;8.67;;;2.10;;
28920;SDS011;16035;53.594;9.952;2023-12-28T07:26:12;7.47;;;2.23;;
28920;SDS011;16035;53.594;9.952;2023-12-28T07:28:12;4.50;;;1.80;;
28920;SDS011;16035;53.594;9.952;2023-12-28T07:30:13;5.87;;;2.03;;
28920;SDS011;16035;53.594;9.952;2023-12-28T07:32:14;6.55;;;1.95;;
28920;SDS011;16035;53.594;9.952;2023-12-28T07:34:14;4.45;;;2.10;;
28920;SDS011;16035;53.594;9.952;2023-12-28T07:36:15;7.27;;;1.70;;
28920;SDS011;16035;53.594;9.952;2023-12-28T07:38:15;5.07;;;1.97;;
28920;SDS011;16035;53.594;9.952;2023-12-28T07:40:15;6.77;;;1.97;;
28920;SDS011;16035;53.594;9.952;2023-12-28T07:42:16;5.47;;;1.87;;
28920;SDS011;16035;53.594;9.952;2023-12-28T07:44:16;4.63;;;1.90;;
28920;SDS011;16035;53.594;9.952;2023-12-28T07:46:17;6.87;;;1.53;;
28920;SDS011;16035;53.594;9.952;2023-12-28T07:48:17;6.67;;;2.00;;
28920;SDS011;16035;53.594;9.952;2023-12-28T07:50:18;5.73;;;1.90;;
28920;SDS011;16035;53.594;9.952;2023-12-28T07:52:19;4.13;;;1.83;;
28920;SDS011;16035;53.594;9.952;2023-12-28T07:54:19;5.50;;;1.80;;
28920;SDS011;16035;53.594;9.952;2023-12-28T07:56:19;7.13;;;2.33;;
28920;SDS011;16035;53.594;9.952;2023-12-28T07:58:20;4.53;;;1.57;;
28920;SDS011;16035;53.594;9.952;2023-12-28T08:00:20;5.27;;;1.77;;
28920;SDS011;16035;53.594;9.952;2023-12-28T08:02:21;3.53;;;2.10;;
28920;SDS011;16035;53.594;9.952;2023-12-28T08:04:21;6.57;;;2.20;;
28920;SDS011;16035;53.594;9.952;2023-12-28T08:06:21;5.40;;;2.20;;
28920;SDS011;16035;53.594;9.952;2023-12-28T08:08:22;8.57;;;2.00;;
28920;SDS011;16035;53.594;9.952;2023-12-28T08:10:22;4.93;;;1.67;;
28920;SDS011;16035;53.594;9.952;2023-12-28T08:12:22;7.20;;;1.57;;
28920;SDS011;16035;53.594;9.952;2023-12-28T08:14:24;8.50;;;2.33;;
28920;SDS011;16035;53.594;9.952;2023-12-28T08:16:24;4.20;;;1.87;;
28920;SDS011;16035;53.594;9.952;2023-12-28T08:20:26;8.52;;;2.03;;
28920;SDS011;16035;53.594;9.952;2023-12-28T08:22:27;8.67;;;1.73;;
28920;SDS011;16035;53.594;9.952;2023-12-28T08:24:28;7.70;;;1.80;;
28920;SDS011;16035;53.594;9.952;2023-12-28T08:26:28;4.37;;;1.83;;
28920;SDS011;16035;53.594;9.952;2023-12-28T08:28:28;6.10;;;1.83;;
28920;SDS011;16035;53.594;9.952;2023-12-28T08:30:29;7.23;;;2.13;;
28920;SDS011;16035;53.594;9.952;2023-12-28T08:32:29;10.87;;;2.50;;
28920;SDS011;16035;53.594;9.952;2023-12-28T08:34:30;4.00;;;2.05;;
28920;SDS011;16035;53.594;9.952;2023-12-28T08:36:30;9.70;;;1.93;;
28920;SDS011;16035;53.594;9.952;2023-12-28T08:38:31;10.90;;;1.93;;
28920;SDS011;16035;53.594;9.952;2023-12-28T08:40:31;8.40;;;2.33;;
28920;SDS011;16035;53.594;9.952;2023-12-28T08:42:32;8.53;;;1.80;;
28920;SDS011;16035;53.594;9.952;2023-12-28T08:44:32;4.93;;;1.77;;
28920;SDS011;16035;53.594;9.952;2023-12-28T08:46:33;8.38;;;1.75;;
28920;SDS011;16035;53.594;9.952;2023-12-28T08:48:34;8.53;;;2.00;;
28920;SDS011;16035;53.594;9.952;2023-12-28T08:50:34;7.00;;;2.00;;
28920;SDS011;16035;53.594;9.952;2023-12-28T08:52:34;7.43;;;1.70;;
28920;SDS011;16035;53.594;9.952;2023-12-28T08:54:35;4.33;;;1.30;;
28920;SDS011;16035;53.594;9.952;2023-12-28T08:56:35;4.60;;;1.43;;
28920;SDS011;16035;53.594;9.952;2023-12-28T08:58:36;8.43;;;1.53;;
28920;SDS011;16035;53.594;9.952;2023-12-28T09:00:36;8.13;;;1.87;;
28920;SDS011;16035;53.594;9.952;2023-12-28T09:02:36;12.53;;;1.60;;
28920;SDS011;16035;53.594;9.952;2023-12-28T09:04:37;8.93;;;2.00;;
28920;SDS011;16035;53.594;9.952;2023-12-28T09:08:41;4.77;;;1.73;;
28920;SDS011;16035;53.594;9.952;2023-12-28T09:10:43;9.05;;;1.70;;
28920;SDS011;16035;53.594;9.952;2023-12-28T09:12:43;7.80;;;1.77;;
28920;SDS011;16035;53.594;9.952;2023-12-28T09:14:46;7.45;;;2.25;;
28920;SDS011;16035;53.594;9.952;2023-12-28T09:16:47;8.23;;;1.60;;
28920;SDS011;16035;53.594;9.952;2023-12-28T09:18:48;9.27;;;1.92;;
28920;SDS011;16035;53.594;9.952;2023-12-28T09:20:48;5.50;;;2.03;;
28920;SDS011;16035;53.594;9.952;2023-12-28T09:22:50;5.53;;;1.58;;
28920;SDS011;16035;53.594;9.952;2023-12-28T09:24:53;10.25;;;1.92;;
28920;SDS011;16035;53.594;9.952;2023-12-28T09:26:53;10.50;;;2.00;;
28920;SDS011;16035;53.594;9.952;2023-12-28T09:28:54;8.10;;;1.93;;
28920;SDS011;16035;53.594;9.952;2023-12-28T09:30:58;7.05;;;1.55;;
28920;SDS011;16035;53.594;9.952;2023-12-28T09:32:58;5.80;;;2.17;;
28920;SDS011;16035;53.594;9.952;2023-12-28T09:34:59;10.00;;;2.10;;
28920;SDS011;16035;53.594;9.952;2023-12-28T09:36:59;11.50;;;1.90;;
28920;SDS011;16035;53.594;9.952;2023-12-28T09:38:59;10.70;;;1.50;;
28920;SDS011;16035;53.594;9.952;2023-12-28T09:41:04;4.75;;;1.80;;
28920;SDS011;16035;53.594;9.952;2023-12-28T09:45:36;9.13;;;3.08;;
28920;SDS011;16035;53.594;9.952;2023-12-28T09:47:37;9.75;;;2.17;;
28920;SDS011;16035;53.594;9.952;2023-12-28T09:49:38;8.77;;;1.88;;
28920;SDS011;16035;53.594;9.952;2023-12-28T09:51:40;11.48;;;1.52;;
28920;SDS011;16035;53.594;9.952;2023-12-28T09:53:40;7.63;;;1.87;;
28920;SDS011;16035;53.594;9.952;2023-12-28T09:55:43;7.78;;;2.67;;
28920;SDS011;16035;53.594;9.952;2023-12-28T09:57:45;7.72;;;2.25;;
28920;SDS011;16035;53.594;9.952;2023-12-28T09:59:46;6.63;;;1.75;;
28920;SDS011;16035;53.594;9.952;2023-12-28T10:01:47;6.80;;;1.87;;
28920;SDS011;16035;53.594;9.952;2023-12-28T10:03:49;6.60;;;2.55;;
28920;SDS011;16035;53.594;9.952;2023-12-28T10:05:49;11.23;;;2.10;;
28920;SDS011;16035;53.594;9.952;2023-12-28T10:07:49;11.40;;;1.83;;
28920;SDS011;16035;53.594;9.952;2023-12-28T10:09:50;6.67;;;1.83;;
28920;SDS011;16035;53.594;9.952;2023-12-28T10:11:50;7.03;;;1.57;;
28920;SDS011;16035;53.594;9.952;2023-12-28T10:13:51;8.33;;;1.53;;
28920;SDS011;16035;53.594;9.952;2023-12-28T10:15:56;8.35;;;1.77;;
28920;SDS011;16035;53.594;9.952;2023-12-28T10:17:57;4.75;;;1.60;;
28920;SDS011;16035;53.594;9.952;2023-12-28T10:19:58;4.93;;;1.63;;
28920;SDS011;16035;53.594;9.952;2023-12-28T10:22:03;7.22;;;1.80;;
28920;SDS011;16035;53.594;9.952;2023-12-28T10:24:04;12.10;;;2.20;;
28920;SDS011;16035;53.594;9.952;2023-12-28T10:26:06;11.95;;;1.90;;
28920;SDS011;16035;53.594;9.952;2023-12-28T10:28:06;12.83;;;2.43;;
28920;SDS011;16035;53.594;9.952;2023-12-28T10:30:07;7.73;;;1.60;;
28920;SDS011;16035;53.594;9.952;2023-12-28T10:32:07;12.43;;;2.38;;
28920;SDS011;16035;53.594;9.952;2023-12-28T10:34:08;10.80;;;2.13;;
28920;SDS011;16035;53.594;9.952;2023-12-28T10:36:08;14.70;;;2.37;;
28920;SDS011;16035;53.594;9.952;2023-12-28T10:38:09;10.80;;;2.03;;
28920;SDS011;16035;53.594;9.952;2023-12-28T10:40:14;12.18;;;2.25;;
28920;SDS011;16035;53.594;9.952;2023-12-28T10:42:22;9.60;;;2.17;;
28920;SDS011;16035;53.594;9.952;2023-12-28T10:44:37;8.63;;;1.90;;
28920;SDS011;16035;53.594;9.952;2023-12-28T10:46:43;5.80;;;1.40;;
28920;SDS011;16035;53.594;9.952;2023-12-28T10:48:45;11.55;;;2.20;;
28920;SDS011;16035;53.594;9.952;2023-12-28T10:50:50;11.82;;;1.80;;
28920;SDS011;16035;53.594;9.952;2023-12-28T10:52:53;18.42;;;2.45;;
28920;SDS011;16035;53.594;9.952;2023-12-28T10:57:18;8.85;;;1.98;;
28920;SDS011;16035;53.594;9.952;2023-12-28T11:01:35;9.20;;;2.10;;
28920;SDS011;16035;53.594;9.952;2023-12-28T11:03:39;7.82;;;2.13;;
28920;SDS011;16035;53.594;9.952;2023-12-28T11:05:42;14.70;;;1.95;;
28920;SDS011;16035;53.594;9.952;2023-12-28T11:07:45;11.90;;;1.90;;
28920;SDS011;16035;53.594;9.952;2023-12-28T11:09:47;12.82;;;2.38;;
28920;SDS011;16035;53.594;9.952;2023-12-28T11:11:49;9.30;;;2.17;;
28920;SDS011;16035;53.594;9.952;2023-12-28T11:13:51;13.68;;;2.17;;
28920;SDS011;16035;53.594;9.952;2023-12-28T11:15:52;9.70;;;1.90;;
28920;SDS011;16035;53.594;9.952;2023-12-28T11:17:55;10.63;;;2.17;;
28920;SDS011;16035;53.594;9.952;2023-12-28T11:19:55;12.70;;;2.37;;
28920;SDS011;16035;53.594;9.952;2023-12-28T11:22:01;9.68;;;2.33;;
28920;SDS011;16035;53.594;9.952;2023-12-28T11:24:03;8.30;;;2.05;;
28920;SDS011;16035;53.594;9.952;2023-12-28T11:26:15;12.35;;;1.75;;
28920;SDS011;16035;53.594;9.952;2023-12-28T11:28:18;11.07;;;1.98;;
28920;SDS011;16035;53.594;9.952;2023-12-28T11:30:20;10.18;;;2.67;;
28920;SDS011;16035;53.594;9.952;2023-12-28T11:32:21;10.93;;;2.27;;
28920;SDS011;16035;53.594;9.952;2023-12-28T11:34:25;9.97;;;2.67;;
28920;SDS011;16035;53.594;9.952;2023-12-28T11:36:35;13.30;;;2.05;;
28920;SDS011;16035;53.594;9.952;2023-12-28T11:38:40;14.38;;;2.50;;
28920;SDS011;16035;53.594;9.952;2023-12-28T11:40:42;11.27;;;2.45;;
28920;SDS011;16035;53.594;9.952;2023-12-28T11:42:47;11.93;;;2.35;;
28920;SDS011;16035;53.594;9.952;2023-12-28T11:44:55;9.68;;;2.30;;
28920;SDS011;16035;53.594;9.952;2023-12-28T11:46:56;11.80;;;2.47;;
28920;SDS011;16035;53.594;9.952;2023-12-28T11:49:06;12.05;;;2.35;;
28920;SDS011;16035;53.594;9.952;2023-12-28T11:51:08;12.73;;;2.50;;
28920;SDS011;16035;53.594;9.952;2023-12-28T11:53:08;5.30;;;1.73;;
28920;SDS011;16035;53.594;9.952;2023-12-28T11:55:08;10.07;;;2.07;;
28920;SDS011;16035;53.594;9.952;2023-12-28T11:57:09;10.20;;;2.50;;
28920;SDS011;16035;53.594;9.952;2023-12-28T11:59:10;9.97;;;2.50;;
28920;SDS011;16035;53.594;9.952;2023-12-28T12:01:10;13.07;;;2.10;;
28920;SDS011;16035;53.594;9.952;2023-12-28T12:03:11;13.70;;;2.70;;
28920;SDS011;16035;53.594;9.952;2023-12-28T12:05:12;13.63;;;2.60;;
28920;SDS011;16035;53.594;9.952;2023-12-28T12:07:20;12.40;;;2.20;;
28920;SDS011;16035;53.594;9.952;2023-12-28T12:09:21;13.18;;;2.72;;
28920;SDS011;16035;53.594;9.952;2023-12-28T12:11:22;11.60;;;2.22;;
28920;SDS011;16035;53.594;9.952;2023-12-28T12:13:23;13.23;;;2.43;;
28920;SDS011;16035;53.594;9.952;2023-12-28T12:15:23;13.07;;;3.10;;
28920;SDS011;16035;53.594;9.952;2023-12-28T12:17:24;14.80;;;2.33;;
28920;SDS011;16035;53.594;9.952;2023-12-28T12:19:25;15.18;;;3.35;;
28920;SDS011;16035;53.594;9.952;2023-12-28T12:21:26;15.43;;;2.40;;
28920;SDS011;16035;53.594;9.952;2023-12-28T12:23:27;10.52;;;2.45;;
28920;SDS011;16035;53.594;9.952;2023-12-28T12:25:28;8.70;;;2.30;;
28920;SDS011;16035;53.594;9.952;2023-12-28T12:27:29;14.45;;;2.65;;
28920;SDS011;16035;53.594;9.952;2023-12-28T12:29:29;18.93;;;4.43;;
28920;SDS011;16035;53.594;9.952;2023-12-28T12:31:30;8.38;;;2.35;;
28920;SDS011;16035;53.594;9.952;2023-12-28T12:33:31;9.87;;;2.27;;
28920;SDS011;16035;53.594;9.952;2023-12-28T12:35:31;11.73;;;2.43;;
28920;SDS011;16035;53.594;9.952;2023-12-28T12:37:32;12.23;;;2.37;;
28920;SDS011;16035;53.594;9.952;2023-12-28T12:39:33;15.50;;;2.60;;